Time;durP1;ratioP1;P1;durP2;ratioP2;P2;SDS_P1;SDS_P2;PMS_P1;PMS_P2;Temp;Humidity;BMP_temperature;BMP_pressure;BME280_temperature;BME280_humidity;BME280_pressure;Samples;Min_cycle;Max_cycle;Signal;HPM_P1;HPM_P2
2023/01/12 00:02:22;;;;;;;11.77;1.80;;;;;;;11.06;100.00;102859.28;5037873;28;20436;-86
2023/01/12 00:04:50;;;;;;;12.43;2.10;;;;;;;11.15;100.00;102851.22;5000062;28;20827;-86
2023/01/12 00:07:19;;;;;;;13.03;1.57;;;;;;;11.25;100.00;102847.44;5003594;28;20512;-88
2023/01/12 00:09:47;;;;;;;8.07;1.30;;;;;;;11.31;100.00;102851.47;5016625;28;20789;-86
2023/01/12 00:12:14;;;;;;;8.67;1.90;;;;;;;11.35;100.00;102850.16;5016206;28;20447;-87
2023/01/12 00:14:43;;;;;;;11.03;1.73;;;;;;;11.38;100.00;102847.97;4999819;28;20829;-87
2023/01/12 00:17:13;;;;;;;7.97;1.53;;;;;;;11.38;100.00;102849.84;5026600;28;20885;-87
2023/01/12 00:19:42;;;;;;;7.87;1.93;;;;;;;11.39;100.00;102843.38;5016468;28;20475;-87
2023/01/12 00:22:15;;;;;;;11.97;1.80;;;;;;;11.34;100.00;102832.88;4999941;28;20439;-86
2023/01/12 00:24:51;;;;;;;11.27;1.60;;;;;;;11.36;100.00;102822.63;5018473;28;20434;-89
2023/01/12 00:27:21;;;;;;;11.20;2.00;;;;;;;11.45;100.00;102830.97;5032476;28;20454;-87
2023/01/12 00:29:51;;;;;;;5.83;2.00;;;;;;;11.48;100.00;102831.53;5010137;28;20447;-87
2023/01/12 00:32:20;;;;;;;5.47;1.60;;;;;;;11.47;100.00;102816.13;5052591;28;20470;-87
2023/01/12 00:34:48;;;;;;;14.87;2.40;;;;;;;11.50;100.00;102818.56;5037415;28;20478;-89
2023/01/12 00:37:18;;;;;;;15.73;2.10;;;;;;;11.55;100.00;102810.75;5036764;28;20431;-86
2023/01/12 00:39:46;;;;;;;10.13;1.70;;;;;;;11.57;100.00;102795.03;5021567;28;20479;-87
2023/01/12 00:45:23;;;;;;;9.90;1.93;;;;;;;11.65;100.00;102788.81;5032194;28;20501;-86
2023/01/12 00:47:52;;;;;;;8.10;1.93;;;;;;;11.67;100.00;102787.66;5020495;28;20445;-87
2023/01/12 00:50:22;;;;;;;10.57;2.00;;;;;;;11.67;100.00;102784.91;5015443;28;21007;-87
2023/01/12 00:52:50;;;;;;;13.60;1.60;;;;;;;11.67;100.00;102775.81;5032012;28;20938;-87
2023/01/12 00:55:19;;;;;;;8.70;1.67;;;;;;;11.68;100.00;102778.41;5016528;28;20964;-86
2023/01/12 00:57:47;;;;;;;7.00;2.00;;;;;;;11.66;100.00;102774.97;5029323;28;20470;-87
2023/01/12 01:00:19;;;;;;;7.77;1.70;;;;;;;11.54;100.00;102769.84;4999712;28;20439;-88
2023/01/12 01:02:52;;;;;;;9.17;2.07;;;;;;;11.45;100.00;102762.50;5031877;28;20451;-87
2023/01/12 01:05:20;;;;;;;11.97;2.37;;;;;;;11.31;100.00;102763.88;5033662;28;20454;-87
2023/01/12 01:07:48;;;;;;;6.10;1.53;;;;;;;11.20;100.00;102761.28;5015746;28;20434;-87
2023/01/12 01:10:16;;;;;;;13.20;2.40;;;;;;;11.07;100.00;102753.41;5000435;28;20543;-87
2023/01/12 01:12:46;;;;;;;12.27;2.60;;;;;;;10.95;100.00;102747.25;5042599;28;20849;-87
2023/01/12 01:15:14;;;;;;;10.87;1.87;;;;;;;10.86;100.00;102741.78;5031173;28;20469;-87
2023/01/12 01:17:42;;;;;;;7.90;1.77;;;;;;;10.76;100.00;102751.91;5015263;28;20439;-87
2023/01/12 01:20:13;;;;;;;8.00;2.13;;;;;;;10.66;100.00;102740.94;5015381;28;20518;-87
2023/01/12 01:22:41;;;;;;;7.43;1.60;;;;;;;10.59;100.00;102735.19;5033025;28;20458;-87
2023/01/12 01:25:09;;;;;;;10.40;1.80;;;;;;;10.50;100.00;102729.75;4999303;28;20540;-87
2023/01/12 01:27:37;;;;;;;5.53;1.43;;;;;;;10.45;100.00;102726.56;5032758;28;20530;-88
2023/01/12 01:30:05;;;;;;;7.43;1.67;;;;;;;10.33;100.00;102713.06;4999355;28;20435;-87
2023/01/12 01:32:34;;;;;;;7.40;1.57;;;;;;;10.36;100.00;102726.44;5015080;28;20868;-86
2023/01/12 01:35:03;;;;;;;5.33;1.30;;;;;;;10.26;100.00;102717.38;5031437;28;20446;-86
2023/01/12 01:37:32;;;;;;;10.13;1.60;;;;;;;10.21;100.00;102714.19;5015045;28;20444;-87
2023/01/12 01:39:59;;;;;;;6.20;1.50;;;;;;;10.17;100.00;102712.75;5031383;28;20490;-87
2023/01/12 01:42:27;;;;;;;6.30;1.50;;;;;;;10.15;100.00;102719.34;4998926;28;20983;-87
2023/01/12 01:44:59;;;;;;;4.43;1.70;;;;;;;10.09;100.00;102719.91;5001334;28;20454;-86
2023/01/12 01:47:39;;;;;;;8.40;1.93;;;;;;;10.05;100.00;102722.94;5052465;28;20537;-86
2023/01/12 01:50:22;;;;;;;5.13;1.30;;;;;;;9.97;100.00;102711.00;5053566;28;20493;-87
2023/01/12 01:52:55;;;;;;;16.17;1.90;;;;;;;9.94;100.00;102717.59;5023822;28;20435;-86
2023/01/12 01:55:25;;;;;;;8.67;1.50;;;;;;;9.91;100.00;102712.41;5034704;28;20453;-87
2023/01/12 01:58:19;;;;;;;4.50;1.50;;;;;;;9.86;100.00;102713.84;5018825;28;20474;-87
2023/01/12 02:00:47;;;;;;;8.10;1.80;;;;;;;9.75;100.00;102711.25;5035532;28;20439;-87
2023/01/12 02:03:14;;;;;;;12.73;1.70;;;;;;;9.71;100.00;102710.66;5018820;28;20445;-87
2023/01/12 02:05:44;;;;;;;12.67;2.10;;;;;;;9.74;100.00;102714.97;5002720;28;20443;-86
2023/01/12 02:08:27;;;;;;;6.87;1.57;;;;;;;9.71;100.00;102716.09;5019461;28;20546;-86
2023/01/12 02:10:58;;;;;;;9.67;1.10;;;;;;;9.65;100.00;102706.59;5038029;28;20439;-86
2023/01/12 02:16:24;;;;;;;7.07;1.67;;;;;;;9.60;100.00;102716.22;5034375;28;20505;-87
2023/01/12 02:19:13;;;;;;;10.43;1.57;;;;;;;9.63;100.00;102719.53;5019198;28;20514;-86
2023/01/12 02:22:02;;;;;;;8.20;1.60;;;;;;;9.68;100.00;102725.44;5031114;28;20546;-86
2023/01/12 02:24:32;;;;;;;6.77;1.23;;;;;;;9.73;100.00;102721.44;5034096;28;20479;-87
2023/01/12 02:27:18;;;;;;;11.80;2.10;;;;;;;9.70;100.00;102723.44;5034478;28;20531;-87
2023/01/12 02:30:24;;;;;;;5.30;1.40;;;;;;;9.64;100.00;102718.53;5034384;28;20825;-87
2023/01/12 02:33:20;;;;;;;4.70;1.70;;;;;;;9.59;100.00;102715.38;4993993;28;20445;-87
2023/01/12 02:36:06;;;;;;;13.43;1.30;;;;;;;9.54;100.00;102706.72;4942770;28;20450;-87
2023/01/12 02:38:49;;;;;;;6.73;1.30;;;;;;;9.49;100.00;102708.13;4959068;28;20482;-86
2023/01/12 02:44:51;;;;;;;4.13;1.37;;;;;;;9.39;100.00;102710.84;4969324;28;20438;-87
2023/01/12 02:48:00;;;;;;;7.30;1.50;;;;;;;9.40;100.00;102707.13;4930060;28;20454;-87
2023/01/12 02:50:49;;;;;;;4.60;2.00;;;;;;;9.47;100.00;102713.72;4936020;28;20434;-87
2023/01/12 02:53:20;;;;;;;10.93;1.70;;;;;;;9.52;100.00;102705.13;4977879;28;20537;-87
2023/01/12 02:55:49;;;;;;;9.77;2.20;;;;;;;9.54;100.00;102709.47;4958625;28;20457;-88
2023/01/12 02:58:17;;;;;;;5.90;1.40;;;;;;;9.54;100.00;102709.47;4941928;28;20564;-87
2023/01/12 03:00:47;;;;;;;6.63;1.33;;;;;;;9.59;100.00;102700.84;4961595;28;20445;-87
2023/01/12 03:03:16;;;;;;;9.77;1.67;;;;;;;9.59;100.00;102703.59;4961967;28;20441;-87
2023/01/12 03:05:44;;;;;;;7.57;1.50;;;;;;;9.58;100.00;102694.53;4962068;28;20484;-87
2023/01/12 03:08:17;;;;;;;7.63;1.87;;;;;;;9.61;100.00;102705.19;4978227;28;20792;-87
2023/01/12 03:11:01;;;;;;;6.73;1.40;;;;;;;9.64;100.00;102710.34;5028980;28;20452;-87
2023/01/12 03:13:30;;;;;;;6.77;1.57;;;;;;;9.64;100.00;102704.88;5034142;28;20775;-87
2023/01/12 03:15:58;;;;;;;7.70;1.43;;;;;;;9.63;100.00;102697.69;5007526;28;20451;-88
2023/01/12 03:18:43;;;;;;;10.33;1.63;;;;;;;9.66;100.00;102707.47;5017262;28;20497;-87
2023/01/12 03:21:21;;;;;;;13.17;1.93;;;;;;;9.66;100.00;102707.47;5010065;28;20459;-86
2023/01/12 03:23:53;;;;;;;10.40;2.30;;;;;;;9.62;100.00;102693.22;5017484;28;20812;-87
2023/01/12 03:26:22;;;;;;;8.67;2.03;;;;;;;9.72;100.00;102706.06;5033355;28;20439;-88
2023/01/12 03:28:58;;;;;;;6.00;1.60;;;;;;;9.75;100.00;102712.09;5001028;28;20498;-87
2023/01/12 03:31:28;;;;;;;10.10;1.80;;;;;;;9.74;100.00;102704.03;5033012;28;20821;-87
2023/01/12 03:33:56;;;;;;;11.07;1.57;;;;;;;9.79;100.00;102701.78;5033194;28;20440;-87
2023/01/12 03:36:50;;;;;;;8.83;1.80;;;;;;;9.84;100.00;102704.91;5010420;28;20782;-87
2023/01/12 03:39:37;;;;;;;15.13;2.47;;;;;;;9.86;100.00;102711.97;5005007;28;20533;-87
2023/01/12 03:42:14;;;;;;;9.97;2.13;;;;;;;9.86;100.00;102700.19;5033151;28;20956;-86
2023/01/12 03:44:58;;;;;;;9.33;1.60;;;;;;;9.90;100.00;102705.22;5027288;28;21059;-86
2023/01/12 03:47:28;;;;;;;12.00;1.47;;;;;;;9.89;100.00;102697.16;5036162;28;20533;-86
2023/01/12 03:50:14;;;;;;;11.07;2.20;;;;;;;9.93;100.00;102698.63;5016780;28;20451;-87
2023/01/12 03:52:42;;;;;;;16.70;1.67;;;;;;;9.93;100.00;102699.50;5000980;28;20451;-86
2023/01/12 03:55:14;;;;;;;9.13;1.70;;;;;;;9.87;100.00;102690.97;5032651;28;20466;-87
2023/01/12 03:57:43;;;;;;;10.77;2.13;;;;;;;9.80;100.00;102689.84;5024411;28;20559;-87
2023/01/12 04:00:12;;;;;;;9.13;1.83;;;;;;;9.69;100.00;102690.81;5016238;28;20557;-88
2023/01/12 04:02:43;;;;;;;13.93;5.03;;;;;;;9.56;100.00;102691.06;5033009;28;20449;-87
2023/01/12 04:05:12;;;;;;;19.33;6.10;;;;;;;9.47;100.00;102688.31;5052632;28;20466;-87
2023/01/12 04:07:41;;;;;;;6.17;2.57;;;;;;;9.39;100.00;102691.75;5019430;28;20449;-87
2023/01/12 04:10:11;;;;;;;6.37;1.30;;;;;;;9.30;100.00;102690.69;5034235;28;20465;-87
2023/01/12 04:12:40;;;;;;;5.30;1.10;;;;;;;9.30;100.00;102708.94;5052267;28;20443;-87
2023/01/12 04:15:10;;;;;;;6.63;2.00;;;;;;;9.27;100.00;102707.34;5017869;28;20451;-87
2023/01/12 04:17:41;;;;;;;6.67;1.83;;;;;;;9.17;100.00;102700.13;5036774;28;20438;-86
2023/01/12 04:20:09;;;;;;;22.03;1.77;;;;;;;9.15;100.00;102693.94;5048513;28;20478;-86
2023/01/12 04:22:42;;;;;;;7.50;1.33;;;;;;;9.13;100.00;102694.06;5032092;28;20801;-86
2023/01/12 04:25:15;;;;;;;11.50;2.17;;;;;;;9.11;100.00;102684.28;5019785;28;20448;-86
2023/01/12 04:27:57;;;;;;;8.20;1.77;;;;;;;9.20;100.00;102687.06;5020068;28;20843;-87
2023/01/12 04:30:26;;;;;;;8.70;2.03;;;;;;;9.29;100.00;102693.56;5051853;28;20563;-86
2023/01/12 04:32:54;;;;;;;9.83;2.67;;;;;;;9.29;100.00;102677.19;5019470;28;20559;-87
2023/01/12 04:35:23;;;;;;;8.87;2.77;;;;;;;9.26;100.00;102683.78;5035500;28;20450;-87
2023/01/12 04:37:52;;;;;;;9.27;2.50;;;;;;;9.23;100.00;102689.53;5015791;28;20454;-87
2023/01/12 04:40:22;;;;;;;9.50;2.87;;;;;;;9.15;100.00;102686.63;5016047;28;20487;-87
2023/01/12 04:42:59;;;;;;;5.23;1.53;;;;;;;9.13;100.00;102682.28;5032110;28;20836;-87
2023/01/12 04:45:30;;;;;;;9.07;1.80;;;;;;;9.05;100.00;102680.22;5019075;28;20784;-87
2023/01/12 04:48:08;;;;;;;7.40;1.70;;;;;;;9.03;100.00;102689.59;5020307;28;20513;-87
2023/01/12 04:50:37;;;;;;;3.33;1.60;;;;;;;9.04;100.00;102688.59;5016228;28;20467;-86
2023/01/12 04:53:06;;;;;;;9.17;1.50;;;;;;;8.95;100.00;102679.34;5015813;28;20447;-87
2023/01/12 04:55:35;;;;;;;6.63;0.93;;;;;;;8.95;100.00;102688.38;5031622;28;20447;-88
2023/01/12 04:58:04;;;;;;;5.33;1.70;;;;;;;8.90;100.00;102687.91;5015679;28;21024;-86
2023/01/12 05:00:32;;;;;;;3.50;1.20;;;;;;;8.84;100.00;102685.75;5016810;28;20498;-87
2023/01/12 05:03:01;;;;;;;3.53;1.13;;;;;;;8.84;100.00;102685.75;5015593;28;20447;-86
2023/01/12 05:05:30;;;;;;;4.93;1.43;;;;;;;8.78;100.00;102677.25;4999688;28;20972;-87
2023/01/12 05:10:52;;;;;;;5.30;2.13;;;;;;;8.66;100.00;102662.81;5018328;28;20961;-87
2023/01/12 05:13:21;;;;;;;6.90;2.73;;;;;;;8.69;100.00;102676.16;5000256;28;20444;-87
2023/01/12 05:15:51;;;;;;;8.23;2.23;;;;;;;8.68;100.00;102669.00;5031561;28;20455;-86
2023/01/12 05:18:19;;;;;;;5.97;1.33;;;;;;;8.62;100.00;102661.38;5000370;28;20493;-86
2023/01/12 05:20:47;;;;;;;7.07;1.67;;;;;;;8.64;100.00;102662.97;5003123;28;20573;-87
2023/01/12 05:23:16;;;;;;;3.30;1.37;;;;;;;8.55;100.00;102654.72;5003876;28;20446;-87
2023/01/12 05:25:45;;;;;;;4.60;1.40;;;;;;;8.56;100.00;102661.91;5019312;28;20443;-86
2023/01/12 05:28:14;;;;;;;6.43;0.97;;;;;;;8.48;100.00;102676.16;5019644;28;20446;-87
2023/01/12 05:30:42;;;;;;;4.00;1.30;;;;;;;8.42;100.00;102684.91;5022996;28;20443;-86
2023/01/12 05:33:15;;;;;;;4.90;1.10;;;;;;;8.39;100.00;102681.56;5003228;28;20435;-86
2023/01/12 05:35:44;;;;;;;7.53;1.23;;;;;;;8.34;100.00;102683.81;5047711;28;20534;-87
2023/01/12 05:38:12;;;;;;;12.73;1.17;;;;;;;8.32;100.00;102690.25;5018726;28;20444;-86
2023/01/12 05:40:41;;;;;;;3.13;1.10;;;;;;;8.27;100.00;102689.75;5019174;28;20487;-87
2023/01/12 05:43:49;;;;;;;5.13;1.70;;;;;;;8.26;100.00;102692.63;5035550;28;20438;-86
2023/01/12 05:46:24;;;;;;;5.70;1.40;;;;;;;8.24;100.00;102695.47;5041845;28;20418;-87
2023/01/12 05:48:54;;;;;;;5.10;1.70;;;;;;;8.29;100.00;102703.22;5038865;28;20442;-87
2023/01/12 05:51:24;;;;;;;9.40;1.87;;;;;;;8.26;100.00;102698.94;5019067;28;20949;-86
2023/01/12 05:53:53;;;;;;;7.50;3.17;;;;;;;8.24;100.00;102695.47;5018864;28;20964;-87
2023/01/12 05:56:25;;;;;;;25.03;9.97;;;;;;;8.22;100.00;102702.06;5011826;28;20530;-86
2023/01/12 05:58:57;;;;;;;21.03;10.37;;;;;;;8.23;100.00;102707.38;5018758;28;20465;-87
2023/01/12 06:01:27;;;;;;;38.80;20.80;;;;;;;8.20;100.00;102702.19;5027769;28;20484;-86
2023/01/12 06:03:57;;;;;;;34.23;18.57;;;;;;;8.21;100.00;102706.63;5018869;28;20459;-86
2023/01/12 06:06:31;;;;;;;10.67;5.30;;;;;;;8.19;100.00;102708.63;5012711;28;20431;-87
2023/01/12 06:09:01;;;;;;;9.83;4.03;;;;;;;8.14;100.00;102719.03;5019350;28;20807;-87
2023/01/12 06:14:18;;;;;;;4.87;2.37;;;;;;;8.03;100.00;102710.91;5021365;28;20442;-87
2023/01/12 06:16:46;;;;;;;6.13;3.00;;;;;;;7.94;100.00;102715.25;5039305;28;20446;-87
2023/01/12 06:19:16;;;;;;;11.73;4.37;;;;;;;7.98;100.00;102718.59;5043044;28;20431;-86
2023/01/12 06:21:47;;;;;;;11.50;3.77;;;;;;;7.98;100.00;102722.19;5055916;28;20454;-87
2023/01/12 06:24:15;;;;;;;6.00;2.80;;;;;;;7.99;100.00;102706.72;5034790;28;20444;-87
2023/01/12 06:26:44;;;;;;;4.00;1.33;;;;;;;7.98;100.00;102705.84;5017857;28;20518;-86
2023/01/12 06:29:13;;;;;;;11.63;1.20;;;;;;;8.00;100.00;102700.28;5019354;28;20436;-87
2023/01/12 06:31:42;;;;;;;6.60;2.17;;;;;;;7.97;100.00;102703.25;5052599;28;20430;-87
2023/01/12 06:34:10;;;;;;;4.83;1.60;;;;;;;7.99;100.00;102709.44;5037392;28;20427;-86
2023/01/12 06:36:39;;;;;;;5.00;1.43;;;;;;;7.98;100.00;102699.53;5036919;28;20458;-86
2023/01/12 06:39:08;;;;;;;6.07;1.30;;;;;;;8.02;100.00;102711.03;5035407;28;20439;-86
2023/01/12 06:44:22;;;;;;;4.57;2.10;;;;;;;8.01;100.00;102715.63;5020301;28;20443;-87
2023/01/12 06:46:50;;;;;;;5.23;2.10;;;;;;;8.03;100.00;102713.63;5018285;28;20459;-88
2023/01/12 06:49:18;;;;;;;7.63;2.70;;;;;;;8.02;100.00;102717.34;5021641;28;20450;-86
2023/01/12 06:51:50;;;;;;;17.40;11.40;;;;;;;7.97;100.00;102711.41;5027424;28;20539;-87
2023/01/12 06:54:18;;;;;;;7.30;3.97;;;;;;;7.93;100.00;102718.09;5050847;28;20448;-88
2023/01/12 06:56:48;;;;;;;4.70;1.40;;;;;;;7.94;100.00;102722.56;5037240;28;20533;-88
2023/01/12 06:59:16;;;;;;;89.47;47.90;;;;;;;7.81;100.00;102702.81;5037684;28;20537;-86
2023/01/12 07:01:47;;;;;;;56.73;34.20;;;;;;;7.85;100.00;102720.63;5037595;28;20435;-86
2023/01/12 07:04:17;;;;;;;15.30;9.40;;;;;;;7.84;100.00;102724.34;5053320;28;20450;-87
2023/01/12 07:06:47;;;;;;;11.53;7.03;;;;;;;7.76;100.00;102721.38;5051269;28;20445;-86
2023/01/12 07:09:14;;;;;;;7.63;3.60;;;;;;;7.73;100.00;102713.44;5002007;28;20543;-87
2023/01/12 07:11:42;;;;;;;5.80;2.90;;;;;;;7.78;100.00;102722.09;5033914;28;20461;-86
2023/01/12 07:14:11;;;;;;;23.93;13.90;;;;;;;7.72;100.00;102715.31;5003398;28;20527;-86
2023/01/12 07:16:39;;;;;;;17.17;9.97;;;;;;;7.76;100.00;102718.66;5034841;28;20454;-87
2023/01/12 07:19:06;;;;;;;17.13;10.70;;;;;;;7.77;100.00;102723.09;5033741;28;20787;-86
2023/01/12 07:21:35;;;;;;;21.03;13.50;;;;;;;7.73;100.00;102721.63;5006946;28;20500;-86
2023/01/12 07:24:06;;;;;;;16.20;10.43;;;;;;;7.71;100.00;102729.03;5052224;28;20427;-87
2023/01/12 07:26:34;;;;;;;12.83;4.37;;;;;;;7.68;100.00;102732.91;5034300;28;21036;-87
2023/01/12 07:29:04;;;;;;;8.13;2.90;;;;;;;7.65;100.00;102727.72;5001232;28;20583;-87
2023/01/12 07:31:33;;;;;;;7.60;2.10;;;;;;;7.63;100.00;102732.41;5037072;28;20486;-86
2023/01/12 07:34:01;;;;;;;3.77;1.40;;;;;;;7.60;100.00;102733.53;5016931;28;20522;-88
2023/01/12 07:36:29;;;;;;;4.90;1.90;;;;;;;7.63;100.00;102729.69;5017138;28;20474;-87
2023/01/12 07:38:57;;;;;;;6.87;2.57;;;;;;;7.67;100.00;102733.03;5033202;28;20451;-87
2023/01/12 07:44:14;;;;;;;10.43;6.30;;;;;;;7.58;100.00;102724.63;5032597;28;20670;-86
2023/01/12 07:46:43;;;;;;;17.90;7.10;;;;;;;7.61;100.00;102746.13;5032847;28;21009;-85
2023/01/12 07:49:13;;;;;;;14.33;7.77;;;;;;;7.59;100.00;102741.81;5034733;28;20946;-86
2023/01/12 07:51:42;;;;;;;20.00;8.20;;;;;;;7.53;100.00;102731.41;5034802;28;20450;-85
2023/01/12 07:54:09;;;;;;;26.03;7.23;;;;;;;7.52;100.00;102730.56;5050873;28;20477;-86
2023/01/12 07:56:38;;;;;;;20.47;6.37;;;;;;;7.53;100.00;102732.28;5033342;28;20435;-86
2023/01/12 07:59:07;;;;;;;8.67;5.50;;;;;;;7.41;100.00;102719.69;5016027;28;20466;-85
2023/01/12 08:01:36;;;;;;;16.10;6.90;;;;;;;7.52;100.00;102744.16;5048324;28;20480;-86
2023/01/12 08:04:04;;;;;;;5.80;3.20;;;;;;;7.45;100.00;102748.38;5034999;28;20459;-88
2023/01/12 08:06:56;;;;;;;5.30;2.57;;;;;;;7.49;100.00;102739.00;5019772;28;20484;-87
2023/01/12 08:09:26;;;;;;;7.00;2.50;;;;;;;7.50;100.00;102754.31;5052278;28;20903;-88
2023/01/12 08:12:04;;;;;;;5.50;1.67;;;;;;;7.51;100.00;102760.59;5018110;28;20468;-88
2023/01/12 08:14:36;;;;;;;15.77;2.80;;;;;;;7.54;100.00;102752.19;5052443;28;20439;-87
2023/01/12 08:17:07;;;;;;;15.50;4.47;;;;;;;7.53;100.00;102754.03;5036593;28;20434;-86
2023/01/12 08:19:40;;;;;;;11.20;4.70;;;;;;;7.54;100.00;102754.91;5035901;28;20546;-87
2023/01/12 08:22:11;;;;;;;10.40;4.93;;;;;;;7.55;100.00;102760.22;5050096;28;20794;-87
2023/01/12 08:24:42;;;;;;;12.00;5.10;;;;;;;7.56;100.00;102758.38;5020047;28;20985;-86
2023/01/12 08:27:11;;;;;;;6.00;3.37;;;;;;;7.58;100.00;102761.84;5018921;28;20534;-88
2023/01/12 08:29:42;;;;;;;8.50;3.40;;;;;;;7.62;100.00;102757.88;5036035;28;20454;-87
2023/01/12 08:32:12;;;;;;;6.63;2.90;;;;;;;7.69;100.00;102763.72;5015559;28;20479;-86
2023/01/12 08:34:41;;;;;;;17.93;4.30;;;;;;;7.74;100.00;102751.44;5038458;28;20449;-87
2023/01/12 08:37:11;;;;;;;13.13;6.07;;;;;;;7.80;100.00;102763.69;5036164;28;20438;-87
2023/01/12 08:39:39;;;;;;;12.60;4.10;;;;;;;7.75;100.00;102755.00;5020325;28;20431;-86
2023/01/12 08:42:08;;;;;;;10.90;2.13;;;;;;;7.91;100.00;102777.25;5014401;28;20480;-87
2023/01/12 08:44:36;;;;;;;13.13;2.23;;;;;;;7.96;100.00;102773.16;5029726;28;20450;-87
2023/01/12 08:47:06;;;;;;;5.63;2.47;;;;;;;8.02;100.00;102777.25;5018138;28;20466;-86
2023/01/12 08:49:34;;;;;;;11.03;3.37;;;;;;;8.11;100.00;102776.47;5033566;28;20435;-87
2023/01/12 08:52:02;;;;;;;7.57;2.63;;;;;;;8.20;100.00;102788.47;5015247;28;20436;-87
2023/01/12 08:54:31;;;;;;;9.07;2.07;;;;;;;8.25;100.00;102783.50;5014922;28;20428;-87
2023/01/12 08:57:00;;;;;;;6.17;2.30;;;;;;;8.32;100.00;102785.59;5051088;28;20445;-88
2023/01/12 08:59:28;;;;;;;12.60;2.60;;;;;;;8.44;100.00;102782.84;5050814;28;20565;-87
2023/01/12 09:01:57;;;;;;;10.00;2.33;;;;;;;8.57;100.00;102783.53;5018612;28;20491;-87
2023/01/12 09:04:28;;;;;;;9.57;2.80;;;;;;;8.66;100.00;102788.19;5050957;28;20448;-88
2023/01/12 09:07:01;;;;;;;14.37;3.30;;;;;;;8.75;100.00;102792.00;5050937;28;20473;-88
2023/01/12 09:09:30;;;;;;;6.30;3.07;;;;;;;8.85;100.00;102790.22;5050280;28;20533;-88
2023/01/12 09:11:59;;;;;;;11.03;4.30;;;;;;;8.92;100.00;102784.09;5034762;28;20509;-87
2023/01/12 09:14:26;;;;;;;18.50;4.50;;;;;;;9.04;100.00;102774.00;5035154;28;21015;-87
2023/01/12 09:16:57;;;;;;;12.50;5.40;;;;;;;9.18;100.00;102767.31;5018851;28;20455;-87
2023/01/12 09:19:25;;;;;;;16.80;8.40;;;;;;;9.28;100.00;102773.69;5040720;28;20443;-87
2023/01/12 09:21:55;;;;;;;18.60;8.27;;;;;;;9.37;100.00;102778.34;4959698;28;20555;-87
2023/01/12 09:24:23;;;;;;;14.97;5.50;;;;;;;9.51;100.00;102771.63;4991036;28;20489;-87
2023/01/12 09:26:52;;;;;;;11.10;6.20;;;;;;;9.62;100.00;102769.66;4960462;28;20448;-90
2023/01/12 09:29:21;;;;;;;14.67;6.60;;;;;;;9.73;100.00;102768.72;4992274;28;20998;-91
2023/01/12 09:31:52;;;;;;;11.73;5.53;;;;;;;9.88;100.00;102771.91;4995401;28;20455;-90
2023/01/12 09:48:10;;;;;;;20.17;7.37;;;;;;;10.72;100.00;102768.59;5020140;28;20443;-91
2023/01/12 09:53:52;;;;;;;25.67;10.03;;;;;;;10.99;100.00;102776.03;5033840;28;20451;-91
2023/01/12 09:56:51;;;;;;;21.87;10.93;;;;;;;11.11;100.00;102775.88;5000095;28;20442;-88
2023/01/12 09:59:26;;;;;;;18.10;10.00;;;;;;;11.26;100.00;102783.47;5027677;28;20529;-89
2023/01/12 10:01:56;;;;;;;16.47;7.13;;;;;;;11.39;100.00;102772.19;5049682;28;20991;-88
2023/01/12 10:04:25;;;;;;;18.67;12.57;;;;;;;11.54;100.00;102773.44;5030357;28;20444;-88
2023/01/12 10:06:53;;;;;;;26.10;16.87;;;;;;;11.70;100.00;102784.59;5037397;28;20452;-91
2023/01/12 10:09:27;;;;;;;20.23;11.23;;;;;;;11.87;100.00;102784.84;5019084;28;20450;-90
2023/01/12 10:12:22;;;;;;;9.70;4.80;;;;;;;12.06;100.00;102803.94;5033040;28;20785;-91
2023/01/12 10:15:07;;;;;;;7.73;3.80;;;;;;;12.21;100.00;102783.19;5033915;28;20474;-86
2023/01/12 10:17:45;;;;;;;5.77;2.70;;;;;;;12.41;100.00;102781.19;5003153;28;20443;-86
2023/01/12 10:20:59;;;;;;;8.13;3.00;;;;;;;12.59;100.00;102784.78;5042774;28;20458;-84
2023/01/12 10:23:27;;;;;;;10.73;4.43;;;;;;;12.77;100.00;102791.13;5068437;28;20557;-84
2023/01/12 10:26:22;;;;;;;5.40;1.60;;;;;;;12.92;100.00;102796.03;5019911;28;20522;-85
2023/01/12 10:28:52;;;;;;;4.13;1.90;;;;;;;13.05;100.00;102797.38;5036949;28;20481;-84
2023/01/12 10:31:25;;;;;;;8.77;3.70;;;;;;;13.18;100.00;102798.84;5036364;28;20447;-84
2023/01/12 10:34:06;;;;;;;4.20;1.20;;;;;;;13.30;100.00;102805.78;5017034;28;20443;-84
2023/01/12 10:36:43;;;;;;;3.97;1.27;;;;;;;13.43;100.00;102809.00;5034012;28;20822;-84
2023/01/12 10:39:30;;;;;;;2.33;0.73;;;;;;;13.59;100.00;102805.47;5032246;28;20450;-85
2023/01/12 10:45:21;;;;;;;3.53;1.27;;;;;;;13.90;100.00;102814.03;5043183;28;20531;-85
2023/01/12 10:47:52;;;;;;;2.43;0.80;;;;;;;14.03;100.00;102822.72;5046118;28;20522;-86
2023/01/12 10:50:26;;;;;;;5.17;1.10;;;;;;;14.12;100.00;102817.06;5018944;28;20467;-84
2023/01/12 10:53:02;;;;;;;2.60;0.97;;;;;;;14.29;100.00;102819.84;5018518;28;20436;-85
2023/01/12 10:55:38;;;;;;;3.10;0.97;;;;;;;14.42;100.00;102812.91;5017906;28;20806;-88
2023/01/12 10:58:25;;;;;;;3.43;0.90;;;;;;;14.57;100.00;102823.25;5023037;28;20469;-87
2023/01/12 11:00:55;;;;;;;4.13;0.93;;;;;;;14.69;100.00;102827.38;5032396;28;20488;-87
2023/01/12 11:03:31;;;;;;;2.93;1.13;;;;;;;14.82;100.00;102822.22;5034455;28;20538;-85
2023/01/12 11:06:23;;;;;;;9.10;2.10;;;;;;;14.98;100.00;102822.25;5035263;28;20446;-85
2023/01/12 11:08:51;;;;;;;26.27;3.60;;;;;;;15.02;100.00;102812.59;5035193;28;20432;-86
2023/01/12 11:11:30;;;;;;;17.20;3.90;;;;;;;15.11;100.00;102817.06;5020773;28;20498;-85
2023/01/12 11:14:03;;;;;;;19.40;4.17;;;;;;;15.11;100.00;102807.94;5032655;28;20501;-86
2023/01/12 11:16:38;;;;;;;23.40;3.70;;;;;;;15.07;100.00;102804.69;5017642;28;20445;-86
2023/01/12 11:19:16;;;;;;;17.10;3.63;;;;;;;15.12;100.00;102802.28;5017714;28;20824;-85
2023/01/12 11:21:54;;;;;;;17.43;3.80;;;;;;;15.15;100.00;102796.41;5024851;28;20483;-87
2023/01/12 11:24:41;;;;;;;18.77;4.20;;;;;;;15.30;100.00;102790.19;5019816;28;20517;-88
2023/01/12 11:27:32;;;;;;;18.63;4.00;;;;;;;15.38;100.00;102784.69;5051849;28;20793;-87
2023/01/12 11:30:14;;;;;;;21.17;4.53;;;;;;;15.46;100.00;102787.41;5036853;28;20473;-86
2023/01/12 11:32:53;;;;;;;27.50;4.90;;;;;;;15.52;100.00;102776.53;5032226;28;20442;-87
2023/01/12 11:35:37;;;;;;;14.67;3.27;;;;;;;15.64;100.00;102774.28;5017805;28;20447;-87
2023/01/12 11:38:16;;;;;;;16.90;3.00;;;;;;;15.79;100.00;102769.75;5004795;28;20501;-87
2023/01/12 11:40:44;;;;;;;12.90;3.17;;;;;;;15.89;100.00;102767.66;5033133;28;20452;-86
2023/01/12 11:46:34;;;;;;;10.60;3.20;;;;;;;16.17;100.00;102753.34;5046725;28;20451;-86
2023/01/12 11:49:17;;;;;;;12.40;2.80;;;;;;;16.26;99.51;102757.78;5035701;28;20509;-87
2023/01/12 11:51:50;;;;;;;16.17;2.20;;;;;;;16.30;99.33;102747.25;5051434;28;20445;-88
2023/01/12 11:54:21;;;;;;;15.30;3.13;;;;;;;16.45;97.97;102753.69;5052315;28;20451;-86
2023/01/12 11:57:12;;;;;;;10.63;2.63;;;;;;;16.52;95.74;102758.31;5042096;28;20530;-88
2023/01/12 11:59:58;;;;;;;8.60;1.87;;;;;;;16.64;95.12;102757.91;5016591;28;20988;-86
2023/01/12 12:02:38;;;;;;;11.43;2.07;;;;;;;16.73;94.51;102738.34;5036427;28;20592;-87
2023/01/12 12:05:46;;;;;;;19.27;3.30;;;;;;;16.80;93.64;102738.44;5052176;28;20932;-87
2023/01/12 12:08:16;;;;;;;18.67;2.80;;;;;;;16.86;93.47;102729.41;5048630;28;20443;-87
2023/01/12 12:11:03;;;;;;;14.63;2.10;;;;;;;16.91;93.46;102719.53;5050659;28;20513;-87
2023/01/12 12:13:49;;;;;;;9.27;1.80;;;;;;;17.02;92.63;102729.25;5045238;28;20541;-87
2023/01/12 12:16:20;;;;;;;11.10;1.97;;;;;;;17.08;91.70;102708.31;5032217;28;21007;-87
2023/01/12 12:19:13;;;;;;;8.47;2.27;;;;;;;17.12;90.31;102713.28;5031889;28;20448;-87
2023/01/12 12:22:19;;;;;;;6.30;1.70;;;;;;;17.26;90.69;102706.88;5046608;28;20894;-87
2023/01/12 12:25:08;;;;;;;13.63;2.47;;;;;;;17.37;91.44;102697.25;5033217;28;20489;-87
2023/01/12 12:27:49;;;;;;;7.27;1.77;;;;;;;17.47;90.50;102691.44;5046811;28;20513;-87
2023/01/12 12:30:45;;;;;;;14.90;2.43;;;;;;;17.51;89.17;102692.78;5035671;28;20443;-87
2023/01/12 12:33:51;;;;;;;6.77;1.83;;;;;;;17.59;87.79;102681.59;5036797;28;20447;-87